Time;durP1;ratioP1;P1;durP2;ratioP2;P2;SDS_P1;SDS_P2;PMS_P1;PMS_P2;Temp;Humidity;BMP_temperature;BMP_pressure;BME280_temperature;BME280_humidity;BME280_pressure;Samples;Min_cycle;Max_cycle;Signal;HPM_P1;HPM_P2
2023/04/01 00:00:48;;;;;;;2.92;0.93;;;;;;;9.95;95.14;99007.91;5058640;28;20037;-77
2023/04/01 00:03:16;;;;;;;3.47;1.65;;;;;;;9.96;95.40;99008.78;5067805;28;20480;-78
2023/04/01 00:05:44;;;;;;;4.20;1.25;;;;;;;9.94;95.30;99013.28;5065713;28;20940;-79
2023/04/01 00:08:11;;;;;;;3.45;1.10;;;;;;;9.92;95.49;99010.72;5068225;28;20043;-78
2023/04/01 00:10:39;;;;;;;4.70;1.10;;;;;;;9.92;95.44;99013.34;5066925;28;20425;-77
2023/04/01 00:13:06;;;;;;;2.83;1.00;;;;;;;9.93;95.53;99011.59;5066438;28;20040;-78
2023/04/01 00:15:34;;;;;;;5.70;1.38;;;;;;;9.90;95.62;99017.88;5062206;28;20449;-79
2023/04/01 00:18:01;;;;;;;3.35;1.20;;;;;;;9.90;95.64;99015.25;5065831;28;20571;-75
2023/04/01 00:20:29;;;;;;;4.95;1.17;;;;;;;9.90;95.75;99020.50;5064645;28;20033;-77
2023/04/01 00:22:56;;;;;;;6.63;1.42;;;;;;;9.88;95.73;99018.88;5061474;28;20512;-77
2023/04/01 00:25:24;;;;;;;5.95;1.50;;;;;;;9.87;95.87;99022.47;5066502;28;20094;-78
2023/04/01 00:27:51;;;;;;;7.25;1.80;;;;;;;9.88;95.83;99016.25;5062967;28;20041;-77
2023/04/01 00:30:19;;;;;;;4.05;1.30;;;;;;;9.86;95.93;99021.59;5062351;28;20041;-78
2023/04/01 00:32:46;;;;;;;1.98;1.00;;;;;;;9.85;96.00;99022.53;5065617;28;20083;-78
2023/04/01 00:35:13;;;;;;;4.43;1.20;;;;;;;9.86;96.03;99015.50;5064579;28;20068;-78
2023/04/01 00:37:40;;;;;;;4.60;1.35;;;;;;;9.85;96.01;99019.91;5064354;28;20045;-78
2023/04/01 00:40:24;;;;;;;3.47;0.93;;;;;;;9.86;96.30;99021.59;5059340;28;20044;-79
2023/04/01 00:42:52;;;;;;;3.55;1.13;;;;;;;9.85;96.06;99024.34;5059482;28;20048;-79
2023/04/01 00:45:31;;;;;;;2.30;0.98;;;;;;;9.85;96.12;99019.91;5062023;28;20040;-80
2023/04/01 00:48:07;;;;;;;4.00;1.10;;;;;;;9.86;96.10;99026.88;5062463;28;20120;-79
2023/04/01 00:50:36;;;;;;;4.00;1.10;;;;;;;9.84;96.25;99027.91;5064491;28;20493;-75
2023/04/01 00:53:07;;;;;;;3.08;1.00;;;;;;;9.84;96.25;99020.00;5053280;28;20136;-76
2023/04/01 00:55:43;;;;;;;4.80;1.15;;;;;;;9.85;96.35;99030.44;5053978;28;20110;-77
2023/04/01 00:58:18;;;;;;;4.47;1.10;;;;;;;9.82;96.15;99029.75;5082304;28;20974;-76
2023/04/01 01:00:48;;;;;;;3.47;1.10;;;;;;;9.82;96.33;99027.97;5063054;28;20060;-77
2023/04/01 01:03:15;;;;;;;3.85;1.08;;;;;;;9.79;96.15;99026.34;5064985;28;20037;-78
2023/04/01 01:06:23;;;;;;;2.67;0.90;;;;;;;9.77;96.28;99028.22;5063907;28;20045;-76
2023/04/01 01:09:10;;;;;;;2.90;0.90;;;;;;;9.75;96.36;99023.97;5046078;28;20809;-76
2023/04/01 01:11:51;;;;;;;3.97;1.30;;;;;;;9.76;96.54;99020.41;5075388;28;20556;-76
2023/04/01 01:14:52;;;;;;;3.83;1.10;;;;;;;9.77;96.56;99032.66;5064951;28;20045;-76
2023/04/01 01:18:11;;;;;;;4.40;1.27;;;;;;;9.77;96.59;99030.03;5065630;28;20048;-76
2023/04/01 01:21:19;;;;;;;3.80;1.05;;;;;;;9.75;96.70;99034.50;5056933;28;20802;-76
2023/04/01 01:24:31;;;;;;;3.85;1.30;;;;;;;9.75;96.81;99026.63;5053726;28;20464;-76
2023/04/01 01:27:15;;;;;;;3.55;1.35;;;;;;;9.76;96.71;99036.22;5060122;28;20056;-76
2023/04/01 01:30:05;;;;;;;5.75;1.40;;;;;;;9.76;96.69;99038.84;5082364;28;20045;-74
2023/04/01 01:33:30;;;;;;;4.25;1.30;;;;;;;9.74;96.64;99035.44;5060887;28;20065;-75
2023/04/01 01:36:03;;;;;;;2.20;1.35;;;;;;;9.75;96.93;99045.03;5054233;28;20068;-76
2023/04/01 01:38:35;;;;;;;2.17;1.35;;;;;;;9.75;96.82;99047.66;5059588;28;20045;-76
2023/04/01 01:41:07;;;;;;;3.80;1.65;;;;;;;9.74;96.96;99043.34;5069636;28;20043;-75
2023/04/01 01:43:46;;;;;;;2.35;1.20;;;;;;;9.78;96.74;99047.50;5066797;28;20041;-77
2023/04/01 01:46:22;;;;;;;3.67;1.58;;;;;;;9.76;96.77;99059.91;5063209;28;20045;-77
2023/04/01 01:48:52;;;;;;;2.97;1.83;;;;;;;9.75;97.02;99055.56;5064162;28;20103;-76
2023/04/01 01:51:22;;;;;;;2.58;1.63;;;;;;;9.75;96.99;99055.56;5066515;28;20955;-77
2023/04/01 01:53:50;;;;;;;3.50;1.80;;;;;;;9.75;96.93;99058.19;5067626;28;20464;-77
2023/04/01 01:56:26;;;;;;;3.00;1.70;;;;;;;9.75;96.99;99060.81;5066059;28;20044;-76
2023/04/01 01:59:04;;;;;;;5.25;1.90;;;;;;;9.74;97.07;99065.25;5066237;28;20095;-77
2023/04/01 02:01:37;;;;;;;2.45;1.95;;;;;;;9.74;97.13;99056.50;5063628;28;20049;-77
2023/04/01 02:04:14;;;;;;;3.28;2.30;;;;;;;9.74;97.21;99069.66;5081972;28;20041;-75
2023/04/01 02:06:53;;;;;;;2.80;2.20;;;;;;;9.73;97.35;99057.41;5065175;28;20042;-75
2023/04/01 02:09:20;;;;;;;2.80;2.17;;;;;;;9.74;97.30;99053.88;5064214;28;20048;-75
2023/04/01 02:11:55;;;;;;;3.97;2.03;;;;;;;9.72;97.74;99059.22;5072586;28;20513;-76
2023/04/01 02:14:28;;;;;;;2.28;2.08;;;;;;;9.72;97.23;99064.47;5074129;28;20041;-76
2023/04/01 02:17:04;;;;;;;5.75;2.50;;;;;;;9.72;97.65;99069.75;5064001;28;20127;-75
2023/04/01 02:19:39;;;;;;;2.38;2.17;;;;;;;9.72;97.45;99068.88;5080819;28;20037;-76
2023/04/01 02:22:16;;;;;;;2.67;2.25;;;;;;;9.70;97.60;99066.34;5081083;28;20508;-76
2023/04/01 02:24:45;;;;;;;2.97;2.50;;;;;;;9.71;97.81;99075.94;5067040;28;20041;-76
2023/04/01 02:27:12;;;;;;;3.08;2.60;;;;;;;9.72;97.57;99076.78;5065390;28;20049;-75
2023/04/01 02:29:40;;;;;;;5.00;2.53;;;;;;;9.72;97.75;99071.50;5067505;28;20052;-75
2023/04/01 02:32:09;;;;;;;3.47;2.70;;;;;;;9.71;97.61;99083.00;5065835;28;20542;-75
2023/04/01 02:34:37;;;;;;;3.90;2.75;;;;;;;9.70;97.65;99078.66;5062491;28;20477;-75
2023/04/01 02:37:04;;;;;;;4.30;2.80;;;;;;;9.70;97.84;99081.28;5063851;28;20045;-79
2023/04/01 02:39:31;;;;;;;4.47;3.17;;;;;;;9.69;97.74;99082.22;5067455;28;20107;-76
2023/04/01 02:42:00;;;;;;;4.22;3.22;;;;;;;9.68;98.14;99088.41;5064192;28;20057;-76
2023/04/01 02:44:28;;;;;;;4.15;3.47;;;;;;;9.66;98.24;99085.00;5067229;28;20041;-77
2023/04/01 02:46:55;;;;;;;4.93;3.88;;;;;;;9.68;98.28;99091.06;5066172;28;20051;-76
2023/04/01 02:49:22;;;;;;;4.82;4.05;;;;;;;9.65;98.25;99081.56;5063809;28;20048;-77
2023/04/01 02:51:51;;;;;;;4.72;4.22;;;;;;;9.64;98.25;99088.56;5067031;28;20037;-76
2023/04/01 02:54:19;;;;;;;5.00;4.28;;;;;;;9.64;98.29;99099.09;5066523;28;20127;-76
2023/04/01 02:56:46;;;;;;;4.50;4.00;;;;;;;9.66;98.34;99095.53;5065256;28;20041;-75
2023/04/01 02:59:14;;;;;;;5.57;3.95;;;;;;;9.66;98.37;99096.41;5067607;28;20207;-76
2023/04/01 03:01:41;;;;;;;4.60;3.88;;;;;;;9.69;98.23;99090.97;5066459;28;20124;-75
2023/04/01 03:04:08;;;;;;;4.13;3.72;;;;;;;9.67;98.23;99089.34;5067155;28;20469;-75
2023/04/01 03:06:35;;;;;;;4.38;3.97;;;;;;;9.65;98.33;99107.88;5066653;28;20041;-74
2023/04/01 03:09:03;;;;;;;5.20;4.05;;;;;;;9.63;98.15;99089.50;5066973;28;20103;-75
2023/04/01 03:11:30;;;;;;;4.72;3.60;;;;;;;9.61;98.10;99106.31;5066461;28;20155;-74
2023/04/01 03:13:57;;;;;;;5.95;3.92;;;;;;;9.58;98.07;99106.47;5065726;28;20041;-75
2023/04/01 03:16:24;;;;;;;5.63;4.53;;;;;;;9.58;98.01;99107.34;5080731;28;20049;-76
2023/04/01 03:18:53;;;;;;;5.30;4.78;;;;;;;9.58;98.00;99103.84;5064724;28;20064;-76
2023/04/01 03:21:23;;;;;;;5.85;5.18;;;;;;;9.56;97.90;99109.19;5065038;28;20059;-77
2023/04/01 03:23:51;;;;;;;6.30;5.28;;;;;;;9.56;98.06;99111.00;5066022;28;20051;-76
2023/04/01 03:26:18;;;;;;;6.88;5.63;;;;;;;9.56;98.05;99116.25;5065317;28;20041;-77
2023/04/01 03:28:45;;;;;;;8.77;6.30;;;;;;;9.54;98.17;99118.94;5047111;28;20045;-77
2023/04/01 03:31:13;;;;;;;8.27;6.32;;;;;;;9.54;98.24;99110.22;5062198;28;20049;-77
2023/04/01 03:33:47;;;;;;;8.02;6.07;;;;;;;9.53;98.19;99119.03;5063401;28;20045;-77
2023/04/01 03:36:14;;;;;;;7.80;6.60;;;;;;;9.51;98.16;99116.50;5078229;28;20120;-76
2023/04/01 03:38:43;;;;;;;8.48;6.68;;;;;;;9.51;98.19;99124.38;5063045;28;20099;-77
2023/04/01 03:41:16;;;;;;;7.68;6.60;;;;;;;9.51;98.26;99120.91;5062445;28;20060;-77
2023/04/01 03:43:44;;;;;;;9.88;6.38;;;;;;;9.49;98.35;99121.00;5064564;28;20057;-78
2023/04/01 03:46:17;;;;;;;8.50;6.97;;;;;;;9.48;98.31;99116.66;5065855;28;20068;-77
2023/04/01 03:48:44;;;;;;;9.88;6.72;;;;;;;9.47;98.23;99120.22;5062657;28;20056;-77
2023/04/01 03:51:11;;;;;;;8.68;7.38;;;;;;;9.46;98.30;99123.78;5061811;28;20047;-77
2023/04/01 03:53:38;;;;;;;9.65;6.93;;;;;;;9.45;98.60;99125.56;5064985;28;20049;-75
2023/04/01 03:56:08;;;;;;;11.13;7.53;;;;;;;9.44;98.49;99123.00;5077070;28;20052;-77
2023/04/01 03:58:38;;;;;;;9.77;7.53;;;;;;;9.45;98.65;99116.81;5065311;28;20056;-77
2023/04/01 04:01:22;;;;;;;10.20;7.38;;;;;;;9.40;98.58;99111.78;5062485;28;20139;-78
2023/04/01 04:03:52;;;;;;;10.30;7.53;;;;;;;9.40;98.79;99126.75;5064254;28;20048;-77
2023/04/01 04:06:23;;;;;;;11.88;8.68;;;;;;;9.39;98.71;99132.94;5067337;28;20052;-77
2023/04/01 04:08:51;;;;;;;9.82;7.45;;;;;;;9.39;98.89;99130.28;5065763;28;20051;-77
2023/04/01 04:11:21;;;;;;;11.75;7.72;;;;;;;9.39;98.84;99133.75;5065319;28;20087;-77
2023/04/01 04:14:10;;;;;;;9.88;7.55;;;;;;;9.37;99.00;99126.88;5078979;28;20096;-78
2023/04/01 04:16:57;;;;;;;9.68;7.25;;;;;;;9.36;98.86;99127.81;5066851;28;20056;-77
2023/04/01 04:19:43;;;;;;;10.32;7.07;;;;;;;9.35;98.99;99129.63;5064349;28;20128;-79
2023/04/01 04:22:31;;;;;;;10.60;6.63;;;;;;;9.33;99.08;99127.03;5065331;28;20072;-79
2023/04/01 04:25:18;;;;;;;10.40;6.78;;;;;;;9.36;99.20;99130.44;5065725;28;20055;-79
2023/04/01 04:28:05;;;;;;;9.70;6.60;;;;;;;9.33;99.19;99134.94;5063881;28;20971;-78
2023/04/01 04:30:54;;;;;;;8.02;6.38;;;;;;;9.36;99.32;99140.97;5065458;28;20057;-81
2023/04/01 04:33:41;;;;;;;12.27;6.82;;;;;;;9.35;99.16;99142.75;5067168;28;20048;-78
2023/04/01 04:36:28;;;;;;;8.98;6.38;;;;;;;9.32;99.44;99149.00;5055912;28;20818;-81
2023/04/01 04:39:15;;;;;;;9.80;6.70;;;;;;;9.33;99.26;99148.09;5066458;28;20045;-78
2023/04/01 04:42:03;;;;;;;7.20;6.03;;;;;;;9.33;99.30;99142.81;5058155;28;20067;-78
2023/04/01 04:44:30;;;;;;;7.57;6.05;;;;;;;9.30;99.14;99150.88;5065207;28;20033;-78
2023/04/01 04:46:59;;;;;;;7.43;5.43;;;;;;;9.29;99.27;99154.44;5082369;28;20572;-78
2023/04/01 04:49:27;;;;;;;6.63;5.50;;;;;;;9.26;99.27;99159.84;5082545;28;20103;-78
2023/04/01 04:51:54;;;;;;;6.65;5.65;;;;;;;9.26;99.53;99164.28;5062997;28;20577;-80
2023/04/01 04:54:24;;;;;;;7.80;5.38;;;;;;;9.25;99.38;99160.78;5060466;28;20125;-80
2023/04/01 04:56:55;;;;;;;6.75;5.88;;;;;;;9.23;99.40;99167.88;5063958;28;20181;-79
2023/04/01 04:59:23;;;;;;;7.65;5.65;;;;;;;9.24;99.52;99168.75;5063728;28;20124;-79
2023/04/01 05:01:58;;;;;;;6.57;5.25;;;;;;;9.25;99.43;99163.41;5063234;28;20048;-76
2023/04/01 05:04:26;;;;;;;6.40;5.18;;;;;;;9.23;99.55;99167.88;5064285;28;20055;-79
2023/04/01 05:06:53;;;;;;;6.53;4.93;;;;;;;9.24;99.32;99174.84;5059087;28;20095;-77
2023/04/01 05:09:20;;;;;;;7.47;4.50;;;;;;;9.21;99.41;99169.75;5063472;28;20056;-76
2023/04/01 05:11:48;;;;;;;5.93;4.30;;;;;;;9.21;99.30;99174.16;5063375;28;20041;-75
2023/04/01 05:14:17;;;;;;;5.20;4.50;;;;;;;9.19;99.29;99176.88;5065467;28;20049;-76
2023/04/01 05:16:54;;;;;;;5.35;4.18;;;;;;;9.18;99.34;99175.19;5066551;28;20120;-78
2023/04/01 05:19:21;;;;;;;6.05;4.53;;;;;;;9.20;99.49;99181.22;5067104;28;20045;-78
2023/04/01 05:21:48;;;;;;;6.65;4.60;;;;;;;9.20;99.49;99186.47;5067626;28;20077;-78
2023/04/01 05:24:15;;;;;;;5.68;4.78;;;;;;;9.21;99.34;99182.06;5063496;28;20045;-76
2023/04/01 05:26:44;;;;;;;6.80;5.10;;;;;;;9.21;99.49;99188.16;5091686;28;20429;-80
2023/04/01 05:29:11;;;;;;;7.28;4.95;;;;;;;9.20;99.19;99191.75;5066289;28;20084;-80
2023/04/01 05:31:39;;;;;;;7.43;5.53;;;;;;;9.20;99.46;99193.50;5065980;28;20052;-79
2023/04/01 05:34:06;;;;;;;6.05;5.20;;;;;;;9.19;99.34;99195.28;5066430;28;20041;-80
2023/04/01 05:36:34;;;;;;;8.48;5.60;;;;;;;9.19;99.49;99197.91;5066275;28;20103;-81
2023/04/01 05:39:01;;;;;;;5.93;5.10;;;;;;;9.17;99.50;99200.59;5068205;28;20059;-81
2023/04/01 05:41:28;;;;;;;6.72;5.57;;;;;;;9.15;99.51;99197.22;5065654;28;20049;-81
2023/04/01 05:43:55;;;;;;;6.32;4.55;;;;;;;9.15;99.80;99202.50;5068833;28;20166;-78
2023/04/01 05:46:43;;;;;;;6.65;5.03;;;;;;;9.13;99.83;99204.34;5051980;28;20083;-78
2023/04/01 05:49:25;;;;;;;6.20;5.10;;;;;;;9.13;99.56;99204.34;5061861;28;20165;-76
2023/04/01 05:51:56;;;;;;;6.93;5.05;;;;;;;9.12;99.92;99212.28;5065759;28;20044;-75
2023/04/01 05:54:23;;;;;;;5.68;4.90;;;;;;;9.12;100.00;99207.03;5061530;28;20045;-74
2023/04/01 05:56:50;;;;;;;6.97;5.68;;;;;;;9.12;100.00;99207.91;5067649;28;20041;-76
2023/04/01 05:59:20;;;;;;;7.07;5.57;;;;;;;9.13;100.00;99208.72;5092174;28;20045;-76
2023/04/01 06:01:47;;;;;;;7.95;6.32;;;;;;;9.13;100.00;99219.25;5056277;28;20041;-76
2023/04/01 06:04:17;;;;;;;7.10;5.90;;;;;;;9.15;100.00;99222.66;5063705;28;20044;-76
2023/04/01 06:06:45;;;;;;;8.73;7.00;;;;;;;9.16;100.00;99222.56;5064615;28;20048;-77
2023/04/01 06:09:25;;;;;;;9.02;7.25;;;;;;;9.19;100.00;99228.59;5066049;28;20033;-78
2023/04/01 06:12:44;;;;;;;7.90;6.53;;;;;;;9.17;100.00;99221.63;5067064;28;20045;-77
2023/04/01 06:15:33;;;;;;;8.52;7.18;;;;;;;9.16;100.00;99229.63;5026300;28;20128;-76
2023/04/01 06:18:41;;;;;;;10.65;8.30;;;;;;;9.19;100.00;99232.09;5036988;28;20053;-77
2023/04/01 06:21:45;;;;;;;11.02;8.77;;;;;;;9.23;100.00;99243.31;5055641;28;20590;-77
2023/04/01 06:24:39;;;;;;;11.45;8.55;;;;;;;9.27;100.00;99245.72;5062833;28;20041;-76
2023/04/01 06:27:42;;;;;;;14.60;9.05;;;;;;;9.29;100.00;99256.13;5060254;28;21723;-77
2023/04/01 06:30:35;;;;;;;13.93;9.63;;;;;;;9.29;100.00;99256.13;5066444;28;20185;-78
2023/04/01 06:33:34;;;;;;;12.77;9.52;;;;;;;9.30;100.00;99257.84;5058391;28;20125;-76
2023/04/01 06:36:25;;;;;;;13.13;9.23;;;;;;;9.31;100.00;99262.19;5057488;28;20068;-81
2023/04/01 06:39:23;;;;;;;14.52;10.30;;;;;;;9.34;100.00;99267.28;5064535;28;20053;-79
2023/04/01 06:42:43;;;;;;;14.77;10.82;;;;;;;9.37;100.00;99268.91;5066097;28;20041;-78
2023/04/01 06:45:53;;;;;;;16.30;10.90;;;;;;;9.46;100.00;99273.69;5068055;28;20126;-83
2023/04/01 06:49:04;;;;;;;16.30;10.73;;;;;;;9.50;100.00;99275.25;5065755;28;20429;-83
2023/04/01 06:52:22;;;;;;;16.02;11.50;;;;;;;9.48;100.00;99283.22;5063510;28;20493;-82
2023/04/01 06:55:32;;;;;;;15.87;12.33;;;;;;;9.51;100.00;99278.72;5066258;28;20056;-79
2023/04/01 06:58:30;;;;;;;16.40;12.07;;;;;;;9.62;100.00;99295.66;5065721;28;20061;-81
2023/04/01 07:01:02;;;;;;;;;;;;;;;9.76;100.00;99294.13;5065633;28;20111;-79
2023/04/01 07:03:34;;;;;;;15.10;11.20;;;;;;;9.93;100.00;99299.34;5068381;28;19924;-80
2023/04/01 07:06:14;;;;;;;;;;;;;;;10.04;100.00;99303.19;5068344;28;20049;-81
2023/04/01 07:08:54;;;;;;;16.13;11.50;;;;;;;10.15;100.00;99292.13;5062095;28;20421;-79
2023/04/01 07:11:32;;;;;;;15.95;11.18;;;;;;;10.23;100.00;99301.28;5064422;28;20091;-80
2023/04/01 07:14:29;;;;;;;15.95;10.93;;;;;;;10.29;99.48;99304.53;5067445;28;20497;-81
2023/04/01 07:17:08;;;;;;;14.52;10.45;;;;;;;10.28;98.64;99306.31;5065256;28;20053;-80
2023/04/01 07:19:44;;;;;;;14.82;10.82;;;;;;;10.32;98.63;99313.13;5063581;28;20587;-80
2023/04/01 07:22:40;;;;;;;17.35;10.52;;;;;;;10.45;98.03;99321.25;5090255;28;20040;-81
2023/04/01 07:25:44;;;;;;;15.98;10.85;;;;;;;10.48;97.09;99321.09;5095437;28;20110;-81
2023/04/01 07:28:43;;;;;;;14.68;10.60;;;;;;;10.37;97.05;99337.47;5047110;28;20179;-80
2023/04/01 07:32:03;;;;;;;16.25;10.82;;;;;;;10.32;97.00;99334.19;5081986;28;20049;-79
2023/04/01 07:35:15;;;;;;;17.00;11.18;;;;;;;10.24;97.53;99342.50;5078394;28;20033;-80
2023/04/01 07:38:20;;;;;;;18.10;11.13;;;;;;;10.20;97.71;99343.59;5053856;28;20049;-80
2023/04/01 07:41:15;;;;;;;15.75;10.38;;;;;;;10.23;97.57;99350.50;5079693;28;20045;-78
2023/04/01 07:44:04;;;;;;;;;;;;;;;10.17;97.37;99354.28;5064953;28;20055;-79
2023/04/01 07:47:09;;;;;;;15.82;10.07;;;;;;;10.19;97.66;99352.44;5047783;28;19936;-79
2023/04/01 07:49:56;;;;;;;15.00;9.43;;;;;;;10.20;97.73;99359.41;5075880;28;20047;-77
2023/04/01 07:52:32;;;;;;;15.75;10.15;;;;;;;10.18;97.82;99363.03;5066491;28;20044;-77
2023/04/01 07:55:23;;;;;;;15.20;10.20;;;;;;;10.15;97.86;99361.41;5064832;28;20528;-79
2023/04/01 07:58:10;;;;;;;15.50;9.98;;;;;;;10.14;98.16;99374.66;5064603;28;20049;-79
2023/04/01 08:01:29;;;;;;;15.88;10.10;;;;;;;10.08;98.35;99373.22;5081131;28;20041;-78
2023/04/01 08:04:42;;;;;;;16.60;9.75;;;;;;;10.04;98.87;99380.41;5055101;28;20058;-75
2023/04/01 08:07:37;;;;;;;17.08;10.60;;;;;;;10.08;98.99;99381.09;5072714;28;20045;-76
2023/04/01 08:10:56;;;;;;;16.02;9.57;;;;;;;10.07;98.78;99388.13;5062820;28;20335;-76
2023/04/01 08:14:26;;;;;;;17.85;10.50;;;;;;;10.05;99.03;99391.78;5050705;28;20049;-76
2023/04/01 08:17:55;;;;;;;18.38;10.77;;;;;;;10.05;99.61;99394.41;5002714;28;20116;-75
2023/04/01 08:20:39;;;;;;;15.27;9.90;;;;;;;10.05;99.67;99399.69;5046731;28;20053;-76
2023/04/01 08:23:27;;;;;;;14.77;9.23;;;;;;;10.05;99.67;99397.06;5066162;28;20045;-76
2023/04/01 08:26:20;;;;;;;13.52;8.68;;;;;;;10.03;99.63;99407.69;5065958;28;20041;-76
2023/04/01 08:29:18;;;;;;;13.55;8.48;;;;;;;9.99;99.77;99413.16;5063566;28;20767;-76
2023/04/01 08:31:57;;;;;;;13.10;8.57;;;;;;;10.04;99.83;99419.03;5046044;28;20670;-76
2023/04/01 08:34:33;;;;;;;13.15;8.38;;;;;;;10.03;99.99;99417.34;5043894;28;20049;-75
2023/04/01 08:37:17;;;;;;;10.70;6.07;;;;;;;10.03;99.77;99427.88;5050327;28;20133;-76
2023/04/01 08:40:14;;;;;;;11.32;7.30;;;;;;;9.94;100.00;99429.19;5060348;28;20099;-78
2023/04/01 08:43:12;;;;;;;10.50;6.82;;;;;;;9.89;100.00;99439.97;5053197;28;20114;-76
2023/04/01 08:46:06;;;;;;;9.93;6.80;;;;;;;9.87;100.00;99436.53;5060866;28;20063;-76
2023/04/01 08:49:20;;;;;;;11.65;6.40;;;;;;;9.88;100.00;99442.66;5059457;28;20040;-76
2023/04/01 08:52:12;;;;;;;12.68;6.55;;;;;;;9.90;100.00;99444.31;5070599;28;20512;-75
2023/04/01 08:55:19;;;;;;;10.00;6.32;;;;;;;9.92;100.00;99457.38;5051443;28;20099;-76
2023/04/01 08:58:42;;;;;;;8.75;6.25;;;;;;;9.90;100.00;99462.72;5067794;28;20048;-74
2023/04/01 09:01:57;;;;;;;8.43;4.60;;;;;;;9.92;100.00;99463.47;5057617;28;20045;-75
2023/04/01 09:05:10;;;;;;;7.93;5.65;;;;;;;9.91;100.00;99471.47;5053605;28;20136;-76
2023/04/01 09:08:07;;;;;;;8.82;5.72;;;;;;;9.92;100.00;99471.38;5066348;28;20071;-76
2023/04/01 09:10:59;;;;;;;8.40;4.85;;;;;;;9.95;100.00;99475.66;5055248;28;20051;-77
2023/04/01 09:14:12;;;;;;;9.05;5.88;;;;;;;9.94;100.00;99484.50;5066510;28;20541;-78
2023/04/01 09:17:08;;;;;;;9.27;6.60;;;;;;;9.90;100.00;99475.88;5065883;28;20048;-77
2023/04/01 09:20:02;;;;;;;10.73;6.45;;;;;;;9.90;100.00;99482.91;5073977;28;20046;-77
2023/04/01 09:23:08;;;;;;;8.27;6.28;;;;;;;9.94;100.00;99487.97;5062743;28;20067;-77
2023/04/01 09:26:08;;;;;;;11.57;7.28;;;;;;;10.00;100.00;99488.59;5033262;28;20069;-77
2023/04/01 09:28:47;;;;;;;10.30;6.78;;;;;;;10.03;100.00;99493.69;5049566;28;20057;-77
2023/04/01 09:31:48;;;;;;;10.93;6.45;;;;;;;10.07;100.00;99532.97;5061874;28;20055;-76
2023/04/01 09:34:55;;;;;;;11.05;6.80;;;;;;;10.08;100.00;99499.59;5064989;28;20064;-77
2023/04/01 09:37:45;;;;;;;12.48;7.03;;;;;;;10.09;100.00;99504.78;5062669;28;20051;-76
2023/04/01 09:40:53;;;;;;;11.68;6.53;;;;;;;10.11;99.80;99515.25;5063675;28;20051;-77
2023/04/01 09:44:03;;;;;;;13.93;8.27;;;;;;;10.13;100.00;99509.91;5081205;28;20043;-77
2023/04/01 09:47:03;;;;;;;12.02;7.97;;;;;;;10.13;100.00;99507.25;5045486;28;20049;-77
2023/04/01 09:50:10;;;;;;;12.25;8.52;;;;;;;10.12;100.00;99518.72;5061768;28;20067;-77
2023/04/01 09:53:12;;;;;;;16.23;9.23;;;;;;;10.11;100.00;99528.41;5066228;28;20045;-77
2023/04/01 09:56:20;;;;;;;13.02;7.93;;;;;;;10.13;100.00;99526.53;5051678;28;20437;-78
2023/04/01 09:59:24;;;;;;;15.55;9.82;;;;;;;10.13;100.00;99531.81;5051809;28;20049;-77
2023/04/01 10:02:37;;;;;;;16.33;9.93;;;;;;;10.12;100.00;99535.41;5068205;28;20076;-78
2023/04/01 10:05:55;;;;;;;15.88;10.73;;;;;;;10.09;100.00;99532.91;5066572;28;20045;-78
2023/04/01 10:09:14;;;;;;;17.55;10.85;;;;;;;10.05;100.00;99541.88;5067265;28;20049;-78
2023/04/01 10:11:55;;;;;;;17.98;10.40;;;;;;;10.02;100.00;99536.78;5069673;28;20076;-78
2023/04/01 10:14:56;;;;;;;21.23;10.73;;;;;;;10.04;100.00;99542.78;5060257;28;20052;-78
2023/04/01 10:18:09;;;;;;;15.82;8.90;;;;;;;10.05;100.00;99552.41;5056547;28;20411;-78
2023/04/01 10:21:12;;;;;;;16.50;9.18;;;;;;;10.07;100.00;99555.81;5065771;28;20063;-78
2023/04/01 10:24:31;;;;;;;17.63;10.38;;;;;;;10.12;100.00;99558.22;5067992;28;20074;-77
2023/04/01 10:27:59;;;;;;;18.67;10.63;;;;;;;10.16;100.00;99565.06;5067529;28;20107;-77
2023/04/01 10:31:00;;;;;;;17.35;10.25;;;;;;;10.20;100.00;99570.09;5065677;28;20049;-78
2023/04/01 10:33:47;;;;;;;16.77;10.05;;;;;;;10.20;100.00;99562.19;5067286;28;20103;-77
2023/04/01 10:36:48;;;;;;;15.00;8.90;;;;;;;10.20;100.00;99577.13;5076161;28;20072;-78
2023/04/01 10:40:18;;;;;;;17.25;8.77;;;;;;;10.15;100.00;99587.06;5063276;28;20040;-78
2023/04/01 10:44:04;;;;;;;16.50;9.38;;;;;;;10.06;100.00;99586.56;5057595;28;20064;-80
2023/04/01 10:47:09;;;;;;;15.95;8.73;;;;;;;10.07;100.00;99580.34;5038556;28;20065;-79
2023/04/01 10:49:59;;;;;;;14.70;9.18;;;;;;;10.05;100.00;99584.00;5064469;28;20049;-79
2023/04/01 10:52:57;;;;;;;10.70;7.35;;;;;;;10.03;100.00;99594.63;5063725;28;20037;-82
2023/04/01 10:56:23;;;;;;;12.48;8.63;;;;;;;9.99;100.00;99597.47;5065888;28;20060;-80
2023/04/01 10:59:59;;;;;;;13.48;8.25;;;;;;;10.00;100.00;99601.81;5066917;28;20049;-79
2023/04/01 11:03:25;;;;;;;14.93;8.73;;;;;;;10.00;100.00;99589.47;5065844;28;20518;-78
2023/04/01 11:06:54;;;;;;;15.77;9.75;;;;;;;10.11;100.00;99607.41;5052292;28;20124;-78
2023/04/01 11:09:51;;;;;;;15.15;8.43;;;;;;;10.17;100.00;99607.13;5060318;28;20053;-76
2023/04/01 11:12:40;;;;;;;14.90;9.27;;;;;;;10.17;100.00;99608.91;5062258;28;20053;-78
2023/04/01 11:15:28;;;;;;;16.48;9.48;;;;;;;10.26;100.00;99605.81;5097981;28;21057;-79
2023/04/01 11:18:18;;;;;;;15.32;9.65;;;;;;;10.40;100.00;99618.34;5061302;28;20041;-77
2023/04/01 11:20:58;;;;;;;14.48;8.60;;;;;;;10.49;100.00;99625.78;5062679;28;20052;-79
2023/04/01 11:24:05;;;;;;;16.58;9.57;;;;;;;10.59;100.00;99618.28;5065991;28;20406;-77
2023/04/01 11:26:55;;;;;;;14.23;7.65;;;;;;;10.67;100.00;99623.16;5062695;28;20049;-77
2023/04/01 11:30:05;;;;;;;13.70;9.07;;;;;;;10.77;100.00;99624.41;5065870;28;20871;-79
2023/04/01 11:32:47;;;;;;;13.10;8.40;;;;;;;10.87;99.12;99627.44;5066343;28;20052;-78
2023/04/01 11:35:52;;;;;;;12.35;8.60;;;;;;;11.02;99.13;99633.72;5065566;28;20175;-79
2023/04/01 11:38:40;;;;;;;15.18;8.63;;;;;;;11.14;98.61;99637.50;5064630;28;20076;-79
2023/04/01 11:41:45;;;;;;;13.10;8.48;;;;;;;11.15;97.78;99631.28;5065301;28;20060;-81
2023/04/01 11:44:36;;;;;;;11.50;7.95;;;;;;;11.14;98.26;99645.41;5063436;28;20042;-80
2023/04/01 11:47:41;;;;;;;10.30;7.45;;;;;;;11.07;97.12;99647.50;5066237;28;20052;-80
2023/04/01 11:50:33;;;;;;;12.45;8.45;;;;;;;10.99;98.46;99650.53;5093296;28;20071;-80
2023/04/01 11:54:05;;;;;;;9.20;6.20;;;;;;;10.92;98.97;99659.69;5061283;28;20484;-79
2023/04/01 11:57:00;;;;;;;7.75;5.13;;;;;;;10.77;99.57;99656.03;5066409;28;20116;-79
2023/04/01 11:59:52;;;;;;;7.82;5.43;;;;;;;10.70;100.00;99662.56;5067125;28;20106;-79
2023/04/01 12:03:01;;;;;;;7.82;5.22;;;;;;;10.67;100.00;99668.84;5062673;28;20461;-77
2023/04/01 12:06:01;;;;;;;8.18;5.50;;;;;;;10.68;100.00;99674.97;5064029;28;20424;-77
2023/04/01 12:08:47;;;;;;;9.02;5.88;;;;;;;10.67;100.00;99681.16;5066416;28;20037;-78
2023/04/01 12:11:36;;;;;;;10.20;5.78;;;;;;;10.62;99.60;99678.75;5063666;28;20103;-78
2023/04/01 12:14:14;;;;;;;10.10;6.18;;;;;;;10.57;100.00;99678.13;5066731;28;20049;-78
2023/04/01 12:17:03;;;;;;;9.60;6.63;;;;;;;10.57;99.75;99684.25;5062843;28;20045;-79
2023/04/01 12:19:36;;;;;;;11.75;7.10;;;;;;;10.57;100.00;99688.69;5062882;28;20041;-79
2023/04/01 12:22:49;;;;;;;9.85;7.13;;;;;;;10.71;99.52;99680.94;5063376;28;20068;-78
2023/04/01 12:25:52;;;;;;;9.05;6.13;;;;;;;11.01;98.96;99698.78;5065605;28;20194;-78
2023/04/01 12:28:53;;;;;;;10.93;7.93;;;;;;;11.32;99.23;99696.38;5056913;28;20061;-80
2023/04/01 12:31:37;;;;;;;12.13;7.72;;;;;;;11.64;97.78;99707.88;5061857;28;20106;-81
2023/04/01 12:34:36;;;;;;;13.63;6.68;;;;;;;11.71;97.03;99707.53;5067445;28;20072;-79
2023/04/01 12:37:39;;;;;;;10.90;7.35;;;;;;;11.54;95.24;99705.81;5060566;28;21032;-76
2023/04/01 12:40:40;;;;;;;13.57;6.82;;;;;;;11.32;95.71;99707.78;5066344;28;20512;-79
2023/04/01 12:43:13;;;;;;;10.98;6.28;;;;;;;11.18;96.10;99705.84;5063344;28;21551;-78
2023/04/01 12:46:10;;;;;;;11.32;7.18;;;;;;;11.15;96.74;99711.25;5065560;28;20037;-81
2023/04/01 12:49:03;;;;;;;10.65;6.72;;;;;;;11.14;96.10;99714.84;5065150;28;20083;-81
2023/04/01 12:52:05;;;;;;;7.53;5.80;;;;;;;11.28;95.87;99713.28;5060272;28;20805;-79
2023/04/01 12:55:06;;;;;;;8.15;6.00;;;;;;;11.46;95.75;99719.41;5064439;28;20493;-79
2023/04/01 12:58:16;;;;;;;7.88;5.60;;;;;;;11.62;95.28;99722.94;5065786;28;20502;-78
2023/04/01 13:01:10;;;;;;;6.13;4.65;;;;;;;11.94;95.18;99725.66;5064706;28;20071;-81